Time,TemperatureF,DewpointF,PressureIn,WindDirection,WindDirectionDegrees,WindSpeedMPH,WindSpeedGustMPH,Humidity,HourlyPrecipIn,Conditions,Clouds,dailyrainin,SoftwareType,DateUTC
2013-01-02 00:04:00,12.4,7.4,29.77,West,277,0.0,2.0,80,0.00,,,0.00,Wunderground v.1.15,2013-01-02 06:04:00,
2013-01-02 00:09:00,12.3,7.6,29.76,West,273,0.0,2.0,81,0.00,,,0.00,Wunderground v.1.15,2013-01-02 06:09:00,
2013-01-02 00:15:00,12.5,7.8,29.77,West,268,0.0,2.0,81,0.00,,,0.00,Wunderground v.1.15,2013-01-02 06:15:00,
2013-01-02 00:20:00,12.5,7.5,29.76,West,268,0.0,0.0,80,0.00,,,0.00,Wunderground v.1.15,2013-01-02 06:20:00,
2013-01-02 00:26:00,12.2,7.2,29.76,West,266,0.0,1.0,80,0.00,,,0.00,Wunderground v.1.15,2013-01-02 06:26:00,
2013-01-02 00:32:00,12.2,7.5,29.76,West,265,0.0,0.0,81,0.00,,,0.00,Wunderground v.1.15,2013-01-02 06:32:00,
2013-01-02 00:37:00,12.2,7.5,29.77,West,265,0.0,0.0,81,0.00,,,0.00,Wunderground v.1.15,2013-01-02 06:37:00,
2013-01-02 00:43:00,12.2,7.5,29.77,West,265,0.0,3.0,81,0.00,,,0.00,Wunderground v.1.15,2013-01-02 06:43:00,
2013-01-02 00:48:00,12.4,7.4,29.76,West,265,0.0,3.0,80,0.00,,,0.00,Wunderground v.1.15,2013-01-02 06:48:00,
2013-01-02 00:54:00,12.0,7.3,29.76,West,265,0.0,0.0,81,0.00,,,0.00,Wunderground v.1.15,2013-01-02 06:54:00,
2013-01-02 00:59:00,11.9,7.2,29.76,West,265,0.0,0.0,81,0.00,,,0.00,Wunderground v.1.15,2013-01-02 06:59:00,
2013-01-02 01:04:00,11.9,7.7,29.76,West,265,1.0,1.0,83,0.00,,,0.00,Wunderground v.1.15,2013-01-02 07:04:00,
2013-01-02 01:10:00,12.0,7.8,29.76,West,265,0.0,0.0,83,0.00,,,0.00,Wunderground v.1.15,2013-01-02 07:10:00,
2013-01-02 01:15:00,12.1,7.9,29.76,West,265,0.0,0.0,83,0.00,,,0.00,Wunderground v.1.15,2013-01-02 07:15:00,
2013-01-02 01:20:00,12.3,8.1,29.76,West,265,0.0,0.0,83,0.00,,,0.00,Wunderground v.1.15,2013-01-02 07:20:00,
2013-01-02 01:25:00,12.3,8.1,29.76,West,265,0.0,0.0,83,0.00,,,0.00,Wunderground v.1.15,2013-01-02 07:25:00,
2013-01-02 01:30:00,12.3,8.1,29.75,West,265,0.0,0.0,83,0.00,,,0.00,Wunderground v.1.15,2013-01-02 07:30:00,
2013-01-02 01:36:00,12.2,8.0,29.75,West,265,0.0,0.0,83,0.00,,,0.00,Wunderground v.1.15,2013-01-02 07:36:00,
2013-01-02 01:42:00,12.0,7.6,29.75,West,265,0.0,0.0,82,0.00,,,0.00,Wunderground v.1.15,2013-01-02 07:42:00,
2013-01-02 01:47:00,11.7,7.3,29.76,West,265,0.0,0.0,82,0.00,,,0.00,Wunderground v.1.15,2013-01-02 07:47:00,
2013-01-02 01:53:00,11.4,7.0,29.75,West,265,0.0,0.0,82,0.00,,,0.00,Wunderground v.1.15,2013-01-02 07:53:00,
2013-01-02 01:59:00,11.2,7.0,29.76,West,265,0.0,0.0,83,0.00,,,0.00,Wunderground v.1.15,2013-01-02 07:59:00,
2013-01-02 02:04:00,11.1,6.7,29.76,West,265,0.0,0.0,82,0.00,,,0.00,Wunderground v.1.15,2013-01-02 08:04:00,
2013-01-02 02:09:00,10.9,6.8,29.76,West,265,0.0,0.0,83,0.00,,,0.00,Wunderground v.1.15,2013-01-02 08:09:00,
2013-01-02 02:14:00,11.0,6.6,29.76,West,265,0.0,0.0,82,0.00,,,0.00,Wunderground v.1.15,2013-01-02 08:14:00,
2013-01-02 02:19:00,10.7,6.6,29.76,West,265,0.0,0.0,83,0.00,,,0.00,Wunderground v.1.15,2013-01-02 08:19:00,
2013-01-02 02:24:00,10.6,6.7,29.76,West,265,0.0,0.0,84,0.00,,,0.00,Wunderground v.1.15,2013-01-02 08:24:00,
2013-01-02 02:29:00,10.5,6.6,29.76,West,265,0.0,0.0,84,0.00,,,0.00,Wunderground v.1.15,2013-01-02 08:29:00,
2013-01-02 02:34:00,10.4,6.5,29.76,West,265,0.0,0.0,84,0.00,,,0.00,Wunderground v.1.15,2013-01-02 08:34:00,
2013-01-02 02:40:00,10.4,6.5,29.76,West,265,0.0,0.0,84,0.00,,,0.00,Wunderground v.1.15,2013-01-02 08:40:00,
2013-01-02 02:46:00,10.3,6.4,29.75,West,265,0.0,0.0,84,0.00,,,0.00,Wunderground v.1.15,2013-01-02 08:46:00,
2013-01-02 02:52:00,10.1,6.2,29.76,West,265,0.0,0.0,84,0.00,,,0.00,Wunderground v.1.15,2013-01-02 08:52:00,
2013-01-02 02:57:00,9.9,6.0,29.76,West,265,0.0,0.0,84,0.00,,,0.00,Wunderground v.1.15,2013-01-02 08:57:00,
2013-01-02 03:02:00,9.7,5.8,29.76,West,265,0.0,1.0,84,0.00,,,0.00,Wunderground v.1.15,2013-01-02 09:02:00,
2013-01-02 03:07:00,9.8,6.2,29.75,West,265,0.0,4.0,85,0.00,,,0.00,Wunderground v.1.15,2013-01-02 09:07:00,
2013-01-02 03:13:00,10.3,6.7,29.75,WSW,245,0.0,4.0,85,0.00,,,0.00,Wunderground v.1.15,2013-01-02 09:13:00,
2013-01-02 03:18:00,10.4,6.8,29.75,WSW,244,0.0,4.0,85,0.00,,,0.00,Wunderground v.1.15,2013-01-02 09:18:00,
2013-01-02 03:24:00,10.1,6.2,29.74,WSW,244,0.0,2.0,84,0.00,,,0.00,Wunderground v.1.15,2013-01-02 09:24:00,
2013-01-02 03:30:00,9.8,5.9,29.75,WSW,244,2.0,4.0,84,0.00,,,0.00,Wunderground v.1.15,2013-01-02 09:30:00,
2013-01-02 03:35:00,9.6,6.0,29.74,SW,227,1.0,5.0,85,0.00,,,0.00,Wunderground v.1.15,2013-01-02 09:35:00,
2013-01-02 03:41:00,9.6,6.0,29.74,SW,216,3.0,4.0,85,0.00,,,0.00,Wunderground v.1.15,2013-01-02 09:41:00,
2013-01-02 03:45:00,9.6,6.3,29.74,SW,215,2.0,5.0,86,0.00,,,0.00,Wunderground v.1.15,2013-01-02 09:45:00,
2013-01-02 03:51:00,9.8,6.5,29.75,SSW,213,3.0,3.0,86,0.00,,,0.00,Wunderground v.1.15,2013-01-02 09:51:00,
2013-01-02 03:56:00,9.8,6.5,29.76,SSW,201,3.0,5.0,86,0.00,,,0.00,Wunderground v.1.15,2013-01-02 09:56:00,
2013-01-02 04:02:00,9.8,6.5,29.75,SSW,200,0.0,4.0,86,0.00,,,0.00,Wunderground v.1.15,2013-01-02 10:02:00,
2013-01-02 04:07:00,9.8,6.5,29.75,SSW,200,0.0,4.0,86,0.00,,,0.00,Wunderground v.1.15,2013-01-02 10:07:00,
2013-01-02 04:12:00,9.8,6.2,29.74,SSW,200,2.0,3.0,85,0.00,,,0.00,Wunderground v.1.15,2013-01-02 10:12:00,
2013-01-02 04:18:00,9.8,6.2,29.74,SSW,200,2.0,4.0,85,0.00,,,0.00,Wunderground v.1.15,2013-01-02 10:18:00,
2013-01-02 04:23:00,9.8,6.2,29.74,SSW,199,0.0,5.0,85,0.00,,,0.00,Wunderground v.1.15,2013-01-02 10:23:00,
2013-01-02 04:28:00,9.7,6.1,29.74,SSW,199,0.0,5.0,85,0.00,,,0.00,Wunderground v.1.15,2013-01-02 10:28:00,
2013-01-02 04:33:00,9.6,6.0,29.74,SSW,199,0.0,3.0,85,0.00,,,0.00,Wunderground v.1.15,2013-01-02 10:33:00,
2013-01-02 04:38:00,9.6,6.0,29.74,SSW,199,1.0,4.0,85,0.00,,,0.00,Wunderground v.1.15,2013-01-02 10:38:00,
2013-01-02 04:43:00,9.4,6.1,29.74,SSW,199,0.0,3.0,86,0.00,,,0.00,Wunderground v.1.15,2013-01-02 10:43:00,
2013-01-02 04:48:00,9.4,6.1,29.74,SSW,199,0.0,5.0,86,0.00,,,0.00,Wunderground v.1.15,2013-01-02 10:48:00,
2013-01-02 04:53:00,9.3,6.0,29.74,SSW,200,2.0,5.0,86,0.00,,,0.00,Wunderground v.1.15,2013-01-02 10:53:00,
2013-01-02 04:58:00,9.2,5.9,29.74,SSW,199,3.0,6.0,86,0.00,,,0.00,Wunderground v.1.15,2013-01-02 10:58:00,
2013-01-02 05:03:00,9.1,6.0,29.74,SSW,196,2.0,5.0,87,0.00,,,0.00,Wunderground v.1.15,2013-01-02 11:03:00,
2013-01-02 05:08:00,9.1,6.0,29.74,SSW,194,4.0,7.0,87,0.00,,,0.00,Wunderground v.1.15,2013-01-02 11:08:00,
2013-01-02 05:13:00,9.0,5.7,29.74,SSW,194,2.0,6.0,86,0.00,,,0.00,Wunderground v.1.15,2013-01-02 11:13:00,
2013-01-02 05:19:00,9.0,5.9,29.74,SSW,194,3.0,8.0,87,0.00,,,0.00,Wunderground v.1.15,2013-01-02 11:19:00,
2013-01-02 05:24:00,8.9,5.6,29.74,SSW,192,3.0,7.0,86,0.00,,,0.00,Wunderground v.1.15,2013-01-02 11:24:00,
2013-01-02 05:29:00,8.9,5.6,29.74,SSW,192,3.0,7.0,86,0.00,,,0.00,Wunderground v.1.15,2013-01-02 11:29:00,
2013-01-02 05:34:00,8.9,5.6,29.74,SSW,194,2.0,7.0,86,0.00,,,0.00,Wunderground v.1.15,2013-01-02 11:34:00,
2013-01-02 05:39:00,8.9,5.6,29.75,SSW,193,1.0,7.0,86,0.00,,,0.00,Wunderground v.1.15,2013-01-02 11:39:00,
2013-01-02 05:44:00,8.9,5.6,29.74,SSW,193,3.0,6.0,86,0.00,,,0.00,Wunderground v.1.15,2013-01-02 11:44:00,
2013-01-02 05:49:00,8.8,5.5,29.75,SSW,193,3.0,6.0,86,0.00,,,0.00,Wunderground v.1.15,2013-01-02 11:49:00,
2013-01-02 05:54:00,8.7,5.1,29.75,SSW,193,3.0,8.0,85,0.00,,,0.00,Wunderground v.1.15,2013-01-02 11:54:00,
2013-01-02 05:59:00,8.7,5.4,29.74,SSW,193,1.0,8.0,86,0.00,,,0.00,Wunderground v.1.15,2013-01-02 11:59:00,
2013-01-02 06:04:00,8.7,5.1,29.74,South,191,2.0,4.0,85,0.00,,,0.00,Wunderground v.1.15,2013-01-02 12:04:00,
2013-01-02 06:09:00,8.8,5.5,29.75,SSW,192,6.0,6.0,86,0.00,,,0.00,Wunderground v.1.15,2013-01-02 12:09:00,
2013-01-02 06:14:00,8.9,5.6,29.75,SSW,193,2.0,7.0,86,0.00,,,0.00,Wunderground v.1.15,2013-01-02 12:14:00,
2013-01-02 06:19:00,9.0,5.4,29.75,SSW,192,2.0,7.0,85,0.00,,,0.00,Wunderground v.1.15,2013-01-02 12:19:00,
2013-01-02 06:24:00,9.0,5.4,29.74,SSW,193,2.0,4.0,85,0.00,,,0.00,Wunderground v.1.15,2013-01-02 12:24:00,
2013-01-02 06:29:00,9.0,5.4,29.74,SSW,193,3.0,6.0,85,0.00,,,0.00,Wunderground v.1.15,2013-01-02 12:29:00,
2013-01-02 06:34:00,9.0,5.4,29.74,SSW,192,0.0,4.0,85,0.00,,,0.00,Wunderground v.1.15,2013-01-02 12:34:00,
2013-01-02 06:39:00,9.0,5.4,29.74,SSW,192,3.0,6.0,85,0.00,,,0.00,Wunderground v.1.15,2013-01-02 12:39:00,
2013-01-02 06:44:00,9.1,5.5,29.73,SSW,192,6.0,6.0,85,0.00,,,0.00,Wunderground v.1.15,2013-01-02 12:44:00,
2013-01-02 06:49:00,9.3,5.7,29.74,South,191,2.0,6.0,85,0.00,,,0.00,Wunderground v.1.15,2013-01-02 12:49:00,
2013-01-02 06:54:00,9.4,5.8,29.74,South,190,3.0,5.0,85,0.00,,,0.00,Wunderground v.1.15,2013-01-02 12:54:00,
2013-01-02 06:59:00,9.6,6.0,29.74,South,191,4.0,5.0,85,0.00,,,0.00,Wunderground v.1.15,2013-01-02 12:59:00,
2013-01-02 07:04:00,9.5,5.9,29.75,South,191,2.0,7.0,85,0.00,,,0.00,Wunderground v.1.15,2013-01-02 13:04:00,
2013-01-02 07:09:00,9.6,6.0,29.74,South,191,2.0,7.0,85,0.00,,,0.00,Wunderground v.1.15,2013-01-02 13:09:00,
2013-01-02 07:14:00,9.7,6.1,29.74,South,189,3.0,6.0,85,0.00,,,0.00,Wunderground v.1.15,2013-01-02 13:14:00,
2013-01-02 07:19:00,9.7,5.8,29.74,South,190,4.0,7.0,84,0.00,,,0.00,Wunderground v.1.15,2013-01-02 13:19:00,
2013-01-02 07:24:00,9.7,5.8,29.74,South,190,5.0,7.0,84,0.00,,,0.00,Wunderground v.1.15,2013-01-02 13:24:00,
2013-01-02 07:29:00,9.7,5.8,29.74,South,187,5.0,7.0,84,0.00,,,0.00,Wunderground v.1.15,2013-01-02 13:29:00,
2013-01-02 07:34:00,9.7,5.8,29.74,South,187,4.0,8.0,84,0.00,,,0.00,Wunderground v.1.15,2013-01-02 13:34:00,
2013-01-02 07:39:00,9.9,6.0,29.74,South,181,6.0,11.0,84,0.00,,,0.00,Wunderground v.1.15,2013-01-02 13:39:00,
2013-01-02 07:44:00,10.0,6.1,29.74,South,180,3.0,7.0,84,0.00,,,0.00,Wunderground v.1.15,2013-01-02 13:44:00,
2013-01-02 07:49:00,10.1,6.2,29.74,South,179,4.0,7.0,84,0.00,,,0.00,Wunderground v.1.15,2013-01-02 13:49:00,
2013-01-02 07:54:00,10.1,6.2,29.74,South,178,5.0,6.0,84,0.00,,,0.00,Wunderground v.1.15,2013-01-02 13:54:00,
2013-01-02 07:59:00,10.2,6.3,29.74,South,180,5.0,7.0,84,0.00,,,0.00,Wunderground v.1.15,2013-01-02 13:59:00,
2013-01-02 08:04:00,10.4,6.5,29.73,South,181,3.0,6.0,84,0.00,,,0.00,Wunderground v.1.15,2013-01-02 14:04:00,
2013-01-02 08:09:00,10.6,6.7,29.73,South,183,3.0,8.0,84,0.00,,,0.00,Wunderground v.1.15,2013-01-02 14:09:00,
2013-01-02 08:14:00,11.0,7.1,29.73,South,183,3.0,7.0,84,0.00,,,0.00,Wunderground v.1.15,2013-01-02 14:14:00,
2013-01-02 08:19:00,11.3,7.1,29.73,South,182,4.0,8.0,83,0.00,,,0.00,Wunderground v.1.15,2013-01-02 14:19:00,
2013-01-02 08:24:00,11.7,7.5,29.73,South,181,6.0,8.0,83,0.00,,,0.00,Wunderground v.1.15,2013-01-02 14:24:00,
2013-01-02 08:29:00,12.1,7.7,29.73,South,180,5.0,8.0,82,0.00,,,0.00,Wunderground v.1.15,2013-01-02 14:29:00,
2013-01-02 08:34:00,12.5,8.0,29.73,South,181,0.0,5.0,82,0.00,,,0.00,Wunderground v.1.15,2013-01-02 14:34:00,
2013-01-02 08:39:00,12.9,8.4,29.73,South,182,3.0,9.0,82,0.00,,,0.00,Wunderground v.1.15,2013-01-02 14:39:00,
2013-01-02 08:44:00,13.4,8.7,29.73,South,182,3.0,8.0,81,0.00,,,0.00,Wunderground v.1.15,2013-01-02 14:44:00,
2013-01-02 08:49:00,13.7,9.0,29.72,South,182,1.0,8.0,81,0.00,,,0.00,Wunderground v.1.15,2013-01-02 14:49:00,
2013-01-02 08:54:00,13.9,9.1,29.73,South,182,3.0,7.0,81,0.00,,,0.00,Wunderground v.1.15,2013-01-02 14:54:00,
2013-01-02 08:59:00,14.2,9.2,29.73,South,188,4.0,8.0,80,0.00,,,0.00,Wunderground v.1.15,2013-01-02 14:59:00,
2013-01-02 09:04:00,14.5,9.5,29.72,South,181,3.0,9.0,80,0.00,,,0.00,Wunderground v.1.15,2013-01-02 15:04:00,
2013-01-02 09:09:00,14.9,9.8,29.72,South,177,6.0,13.0,80,0.00,,,0.00,Wunderground v.1.15,2013-01-02 15:09:00,
2013-01-02 09:14:00,15.1,9.8,29.72,South,188,4.0,12.0,79,0.00,,,0.00,Wunderground v.1.15,2013-01-02 15:14:00,
2013-01-02 09:19:00,15.4,10.1,29.72,South,177,4.0,12.0,79,0.00,,,0.00,Wunderground v.1.15,2013-01-02 15:19:00,
2013-01-02 09:24:00,15.8,10.2,29.72,South,175,6.0,15.0,78,0.00,,,0.00,Wunderground v.1.15,2013-01-02 15:24:00,
2013-01-02 09:29:00,16.1,10.7,29.72,South,174,7.0,15.0,79,0.00,,,0.00,Wunderground v.1.15,2013-01-02 15:29:00,
2013-01-02 09:34:00,16.4,10.7,29.72,South,179,7.0,10.0,78,0.00,,,0.00,Wunderground v.1.15,2013-01-02 15:34:00,
2013-01-02 09:39:00,16.7,11.0,29.72,South,181,4.0,10.0,78,0.00,,,0.00,Wunderground v.1.15,2013-01-02 15:39:00,
2013-01-02 09:44:00,17.1,11.1,29.72,South,180,7.0,10.0,77,0.00,,,0.00,Wunderground v.1.15,2013-01-02 15:44:00,
2013-01-02 09:50:00,17.6,11.6,29.72,South,180,6.0,6.0,77,0.00,,,0.00,Wunderground v.1.15,2013-01-02 15:50:00,
2013-01-02 09:55:00,18.0,11.7,29.72,SSW,193,7.0,11.0,76,0.00,,,0.00,Wunderground v.1.15,2013-01-02 15:55:00,
2013-01-02 10:00:00,18.4,12.1,29.73,SSW,194,4.0,4.0,76,0.00,,,0.00,Wunderground v.1.15,2013-01-02 16:00:00,
2013-01-02 10:05:00,18.9,12.3,29.73,South,182,4.0,8.0,75,0.00,,,0.00,Wunderground v.1.15,2013-01-02 16:05:00,
2013-01-02 10:10:00,19.1,12.5,29.72,South,176,4.0,5.0,75,0.00,,,0.00,Wunderground v.1.15,2013-01-02 16:10:00,
2013-01-02 10:15:00,19.5,12.6,29.72,South,181,7.0,9.0,74,0.00,,,0.00,Wunderground v.1.15,2013-01-02 16:15:00,
2013-01-02 10:20:00,19.8,12.8,29.72,South,188,7.0,7.0,74,0.00,,,0.00,Wunderground v.1.15,2013-01-02 16:20:00,
2013-01-02 10:25:00,20.1,13.1,29.73,South,179,2.0,10.0,74,0.00,,,0.00,Wunderground v.1.15,2013-01-02 16:25:00,
2013-01-02 10:30:00,20.6,13.6,29.73,South,190,3.0,5.0,74,0.00,,,0.00,Wunderground v.1.15,2013-01-02 16:30:00,
2013-01-02 10:35:00,20.8,13.2,29.73,South,180,5.0,14.0,72,0.00,,,0.00,Wunderground v.1.15,2013-01-02 16:35:00,
2013-01-02 10:40:00,21.1,13.8,29.73,SSE,165,6.0,6.0,73,0.00,,,0.00,Wunderground v.1.15,2013-01-02 16:40:00,
2013-01-02 10:45:00,21.5,13.9,29.73,SSW,208,5.0,14.0,72,0.00,,,0.00,Wunderground v.1.15,2013-01-02 16:45:00,
2013-01-02 10:50:00,21.7,13.7,29.72,South,184,6.0,7.0,71,0.00,,,0.00,Wunderground v.1.15,2013-01-02 16:50:00,
2013-01-02 10:55:00,22.1,14.1,29.72,South,184,4.0,13.0,71,0.00,,,0.00,Wunderground v.1.15,2013-01-02 16:55:00,
2013-01-02 11:00:00,22.6,14.3,29.72,South,184,4.0,16.0,70,0.00,,,0.00,Wunderground v.1.15,2013-01-02 17:00:00,
2013-01-02 11:05:00,22.7,14.1,29.72,South,175,5.0,16.0,69,0.00,,,0.00,Wunderground v.1.15,2013-01-02 17:05:00,
2013-01-02 11:10:00,23.1,14.1,29.71,SSW,194,4.0,10.0,68,0.00,,,0.00,Wunderground v.1.15,2013-01-02 17:10:00,
2013-01-02 11:15:00,23.5,14.8,29.71,South,182,7.0,10.0,69,0.00,,,0.00,Wunderground v.1.15,2013-01-02 17:15:00,
2013-01-02 11:20:00,24.0,15.0,29.71,South,175,5.0,6.0,68,0.00,,,0.00,Wunderground v.1.15,2013-01-02 17:20:00,
2013-01-02 11:25:00,24.3,15.3,29.70,SSW,192,3.0,8.0,68,0.00,,,0.00,Wunderground v.1.15,2013-01-02 17:25:00,
2013-01-02 11:30:00,24.7,15.3,29.70,South,176,6.0,7.0,67,0.00,,,0.00,Wunderground v.1.15,2013-01-02 17:30:00,
2013-01-02 11:36:00,25.1,15.7,29.70,South,184,4.0,8.0,67,0.00,,,0.00,Wunderground v.1.15,2013-01-02 17:36:00,
2013-01-02 11:41:00,25.4,15.6,29.70,South,169,5.0,6.0,66,0.00,,,0.00,Wunderground v.1.15,2013-01-02 17:41:00,
2013-01-02 11:46:00,25.6,15.8,29.70,South,187,5.0,8.0,66,0.00,,,0.00,Wunderground v.1.15,2013-01-02 17:46:00,
2013-01-02 11:51:00,26.4,14.8,29.70,SSW,192,4.0,7.0,61,0.00,,,0.00,Wunderground v.1.15,2013-01-02 17:51:00,
2013-01-02 11:56:00,26.3,15.4,29.69,South,190,6.0,8.0,63,0.00,,,0.00,Wunderground v.1.15,2013-01-02 17:56:00,
2013-01-02 12:01:00,26.4,16.6,29.69,South,188,7.0,10.0,66,0.00,,,0.00,Wunderground v.1.15,2013-01-02 18:01:00,
2013-01-02 12:06:00,26.7,16.5,29.68,South,183,5.0,10.0,65,0.00,,,0.00,Wunderground v.1.15,2013-01-02 18:06:00,
2013-01-02 12:11:00,-999.9,-99.9,29.68,South,185,11.0,11.0,61,0.00,,,0.00,Wunderground v.1.15,2013-01-02 18:11:00,
2013-01-02 12:16:00,26.7,16.9,29.68,South,175,6.0,13.0,66,0.00,,,0.00,Wunderground v.1.15,2013-01-02 18:16:00,
2013-01-02 12:21:00,26.9,17.0,29.67,South,180,5.0,9.0,66,0.00,,,0.00,Wunderground v.1.15,2013-01-02 18:21:00,
2013-01-02 12:26:00,27.0,17.1,29.67,South,184,7.0,9.0,66,0.00,,,0.00,Wunderground v.1.15,2013-01-02 18:26:00,
2013-01-02 12:31:00,27.4,17.5,29.67,South,187,5.0,12.0,66,0.00,,,0.00,Wunderground v.1.15,2013-01-02 18:31:00,
2013-01-02 12:36:00,28.1,17.8,29.67,South,179,4.0,12.0,65,0.00,,,0.00,Wunderground v.1.15,2013-01-02 18:36:00,
2013-01-02 12:41:00,27.5,17.3,29.67,South,183,7.0,7.0,65,0.00,,,0.00,Wunderground v.1.15,2013-01-02 18:41:00,
2013-01-02 12:46:00,27.6,17.4,29.67,South,170,2.0,8.0,65,0.00,,,0.00,Wunderground v.1.15,2013-01-02 18:46:00,
2013-01-02 12:51:00,27.7,17.5,29.67,South,169,4.0,7.0,65,0.00,,,0.00,Wunderground v.1.15,2013-01-02 18:51:00,
2013-01-02 12:56:00,27.6,17.0,29.67,South,191,6.0,11.0,64,0.00,,,0.00,Wunderground v.1.15,2013-01-02 18:56:00,
2013-01-02 13:01:00,28.4,18.1,29.67,South,184,3.0,5.0,65,0.00,,,0.00,Wunderground v.1.15,2013-01-02 19:01:00,
2013-01-02 13:06:00,28.0,17.4,29.66,South,182,4.0,10.0,64,0.00,,,0.00,Wunderground v.1.15,2013-01-02 19:06:00,
2013-01-02 13:11:00,28.0,17.4,29.66,South,184,3.0,6.0,64,0.00,,,0.00,Wunderground v.1.15,2013-01-02 19:11:00,
2013-01-02 13:16:00,28.2,17.9,29.67,SSW,198,6.0,10.0,65,0.00,,,0.00,Wunderground v.1.15,2013-01-02 19:16:00,
2013-01-02 13:21:00,28.6,17.6,29.67,South,179,7.0,11.0,63,0.00,,,0.00,Wunderground v.1.15,2013-01-02 19:21:00,
2013-01-02 13:26:00,28.1,17.8,29.67,South,183,7.0,13.0,65,0.00,,,0.00,Wunderground v.1.15,2013-01-02 19:26:00,
2013-01-02 13:31:00,28.4,18.1,29.67,South,173,4.0,9.0,65,0.00,,,0.00,Wunderground v.1.15,2013-01-02 19:31:00,
2013-01-02 13:36:00,28.7,17.7,29.67,South,171,4.0,11.0,63,0.00,,,0.00,Wunderground v.1.15,2013-01-02 19:36:00,
2013-01-02 13:41:00,28.8,18.5,29.66,South,178,2.0,7.0,65,0.00,,,0.00,Wunderground v.1.15,2013-01-02 19:41:00,
2013-01-02 13:46:00,28.9,18.2,29.66,South,172,2.0,8.0,64,0.00,,,0.00,Wunderground v.1.15,2013-01-02 19:46:00,
2013-01-02 13:51:00,29.1,18.8,29.66,SSE,161,1.0,9.0,65,0.00,,,0.00,Wunderground v.1.15,2013-01-02 19:51:00,
2013-01-02 13:56:00,29.2,18.9,29.66,SSE,166,5.0,9.0,65,0.00,,,0.00,Wunderground v.1.15,2013-01-02 19:56:00,
2013-01-02 14:01:00,29.5,19.2,29.65,South,188,7.0,7.0,65,0.00,,,0.00,Wunderground v.1.15,2013-01-02 20:01:00,
2013-01-02 14:06:00,29.8,19.5,29.65,South,172,4.0,7.0,65,0.00,,,0.00,Wunderground v.1.15,2013-01-02 20:06:00,
2013-01-02 14:11:00,30.0,19.3,29.65,South,173,8.0,8.0,64,0.00,,,0.00,Wunderground v.1.15,2013-01-02 20:11:00,
2013-01-02 14:16:00,29.9,18.8,29.65,South,179,6.0,11.0,63,0.00,,,0.00,Wunderground v.1.15,2013-01-02 20:16:00,
2013-01-02 14:21:00,29.9,18.8,29.65,South,173,6.0,8.0,63,0.00,,,0.00,Wunderground v.1.15,2013-01-02 20:21:00,
2013-01-02 14:26:00,29.7,18.6,29.65,South,176,4.0,11.0,63,0.00,,,0.00,Wunderground v.1.15,2013-01-02 20:26:00,
2013-01-02 14:31:00,29.7,19.0,29.65,South,172,7.0,7.0,64,0.00,,,0.00,Wunderground v.1.15,2013-01-02 20:31:00,
2013-01-02 14:36:00,29.9,18.5,29.65,SSE,167,2.0,13.0,62,0.00,,,0.00,Wunderground v.1.15,2013-01-02 20:36:00,
2013-01-02 14:41:00,29.9,18.8,29.65,South,172,5.0,9.0,63,0.00,,,0.00,Wunderground v.1.15,2013-01-02 20:41:00,
2013-01-02 14:46:00,30.5,19.4,29.65,South,182,6.0,11.0,63,0.00,,,0.00,Wunderground v.1.15,2013-01-02 20:46:00,
2013-01-02 14:51:00,30.2,18.7,29.65,South,174,6.0,8.0,62,0.00,,,0.00,Wunderground v.1.15,2013-01-02 20:51:00,
2013-01-02 14:56:00,30.3,19.2,29.65,SSW,196,6.0,9.0,63,0.00,,,0.00,Wunderground v.1.15,2013-01-02 20:56:00,
2013-01-02 15:01:00,30.5,19.0,29.65,South,169,9.0,9.0,62,0.00,,,0.00,Wunderground v.1.15,2013-01-02 21:01:00,
2013-01-02 15:06:00,30.6,19.1,29.65,South,170,5.0,12.0,62,0.00,,,0.00,Wunderground v.1.15,2013-01-02 21:06:00,
2013-01-02 15:11:00,30.6,19.1,29.65,South,173,5.0,7.0,62,0.00,,,0.00,Wunderground v.1.15,2013-01-02 21:11:00,
2013-01-02 15:16:00,30.8,18.9,29.65,South,170,4.0,8.0,61,0.00,,,0.00,Wunderground v.1.15,2013-01-02 21:16:00,
2013-01-02 15:21:00,30.9,19.4,29.65,South,173,5.0,7.0,62,0.00,,,0.00,Wunderground v.1.15,2013-01-02 21:21:00,
2013-01-02 15:26:00,31.1,19.2,29.65,South,173,7.0,8.0,61,0.00,,,0.00,Wunderground v.1.15,2013-01-02 21:26:00,
2013-01-02 15:31:00,31.0,19.5,29.65,South,178,0.0,7.0,62,0.00,,,0.00,Wunderground v.1.15,2013-01-02 21:31:00,
2013-01-02 15:36:00,31.1,19.6,29.65,South,171,5.0,17.0,62,0.00,,,0.00,Wunderground v.1.15,2013-01-02 21:36:00,
2013-01-02 15:41:00,31.0,19.1,29.66,South,186,3.0,6.0,61,0.00,,,0.00,Wunderground v.1.15,2013-01-02 21:41:00,
2013-01-02 15:46:00,30.9,19.0,29.65,South,175,5.0,12.0,61,0.00,,,0.00,Wunderground v.1.15,2013-01-02 21:46:00,
2013-01-02 15:51:00,31.0,19.1,29.65,South,171,2.0,9.0,61,0.00,,,0.00,Wunderground v.1.15,2013-01-02 21:51:00,
2013-01-02 15:56:00,30.7,19.2,29.65,SSE,168,5.0,10.0,62,0.00,,,0.00,Wunderground v.1.15,2013-01-02 21:56:00,
2013-01-02 16:01:00,30.4,18.9,29.66,South,177,6.0,7.0,62,0.00,,,0.00,Wunderground v.1.15,2013-01-02 22:01:00,
2013-01-02 16:06:00,30.3,18.8,29.65,South,172,6.0,9.0,62,0.00,,,0.00,Wunderground v.1.15,2013-01-02 22:06:00,
2013-01-02 16:12:00,30.0,18.5,29.65,South,183,6.0,9.0,62,0.00,,,0.00,Wunderground v.1.15,2013-01-02 22:12:00,
2013-01-02 16:17:00,29.9,18.5,29.65,South,173,5.0,10.0,62,0.00,,,0.00,Wunderground v.1.15,2013-01-02 22:17:00,
2013-01-02 16:22:00,29.7,18.6,29.65,South,175,5.0,8.0,63,0.00,,,0.00,Wunderground v.1.15,2013-01-02 22:22:00,
2013-01-02 16:27:00,29.5,18.4,29.65,South,175,1.0,11.0,63,0.00,,,0.00,Wunderground v.1.15,2013-01-02 22:27:00,
2013-01-02 16:32:00,29.5,18.1,29.65,South,175,4.0,9.0,62,0.00,,,0.00,Wunderground v.1.15,2013-01-02 22:32:00,
2013-01-02 16:37:00,29.9,-99.9,29.65,South,180,3.0,9.0,255,0.00,,,0.00,Wunderground v.1.15,2013-01-02 22:37:00,
2013-01-02 16:42:00,29.3,18.3,29.65,South,171,1.0,6.0,63,0.00,,,0.00,Wunderground v.1.15,2013-01-02 22:42:00,
2013-01-02 16:47:00,29.1,18.4,29.65,South,175,4.0,8.0,64,0.00,,,0.00,Wunderground v.1.15,2013-01-02 22:47:00,
2013-01-02 16:52:00,29.0,18.3,29.65,South,171,6.0,9.0,64,0.00,,,0.00,Wunderground v.1.15,2013-01-02 22:52:00,
2013-01-02 16:57:00,28.9,18.2,29.65,SSE,163,5.0,11.0,64,0.00,,,0.00,Wunderground v.1.15,2013-01-02 22:57:00,
2013-01-02 17:02:00,28.9,18.2,29.65,SSE,168,6.0,10.0,64,0.00,,,0.00,Wunderground v.1.15,2013-01-02 23:02:00,
2013-01-02 17:07:00,28.8,18.1,29.65,South,171,5.0,10.0,64,0.00,,,0.00,Wunderground v.1.15,2013-01-02 23:07:00,
2013-01-02 17:12:00,28.7,18.4,29.65,South,180,2.0,7.0,65,0.00,,,0.00,Wunderground v.1.15,2013-01-02 23:12:00,
2013-01-02 17:17:00,28.6,18.3,29.65,South,173,5.0,9.0,65,0.00,,,0.00,Wunderground v.1.15,2013-01-02 23:17:00,
2013-01-02 17:22:00,28.5,18.2,29.65,South,172,6.0,9.0,65,0.00,,,0.00,Wunderground v.1.15,2013-01-02 23:22:00,
2013-01-02 17:27:00,28.4,18.5,29.65,South,179,6.0,10.0,66,0.00,,,0.00,Wunderground v.1.15,2013-01-02 23:27:00,
2013-01-02 17:32:00,28.4,18.5,29.65,South,184,5.0,8.0,66,0.00,,,0.00,Wunderground v.1.15,2013-01-02 23:32:00,
2013-01-02 17:37:00,28.2,18.3,29.65,South,184,3.0,9.0,66,0.00,,,0.00,Wunderground v.1.15,2013-01-02 23:37:00,
2013-01-02 17:42:00,28.0,18.1,29.66,SSW,197,4.0,6.0,66,0.00,,,0.00,Wunderground v.1.15,2013-01-02 23:42:00,
2013-01-02 17:47:00,27.9,18.4,29.66,South,188,7.0,11.0,67,0.00,,,0.00,Wunderground v.1.15,2013-01-02 23:47:00,
2013-01-02 17:52:00,27.8,18.3,29.66,South,184,4.0,7.0,67,0.00,,,0.00,Wunderground v.1.15,2013-01-02 23:52:00,
2013-01-02 17:57:00,27.6,18.1,29.66,South,184,2.0,7.0,67,0.00,,,0.00,Wunderground v.1.15,2013-01-02 23:57:00,
2013-01-02 18:02:00,27.5,18.0,29.66,South,178,2.0,7.0,67,0.00,,,0.00,Wunderground v.1.15,2013-01-03 00:02:00,
2013-01-02 18:07:00,27.3,18.1,29.67,South,184,5.0,8.0,68,0.00,,,0.00,Wunderground v.1.15,2013-01-03 00:07:00,
2013-01-02 18:12:00,27.1,17.9,29.67,South,186,2.0,4.0,68,0.00,,,0.00,Wunderground v.1.15,2013-01-03 00:12:00,
2013-01-02 18:18:00,27.1,17.9,29.67,South,184,5.0,8.0,68,0.00,,,0.00,Wunderground v.1.15,2013-01-03 00:18:00,
2013-01-02 18:23:00,26.9,18.1,29.67,South,188,3.0,6.0,69,0.00,,,0.00,Wunderground v.1.15,2013-01-03 00:23:00,
2013-01-02 18:28:00,26.8,18.0,29.67,South,190,7.0,7.0,69,0.00,,,0.00,Wunderground v.1.15,2013-01-03 00:28:00,
2013-01-02 18:33:00,26.8,18.0,29.67,South,190,0.0,7.0,69,0.00,,,0.00,Wunderground v.1.15,2013-01-03 00:33:00,
2013-01-02 18:38:00,26.8,18.0,29.67,South,190,3.0,7.0,69,0.00,,,0.00,Wunderground v.1.15,2013-01-03 00:38:00,
2013-01-02 18:43:00,26.8,18.0,29.67,South,187,0.0,5.0,69,0.00,,,0.00,Wunderground v.1.15,2013-01-03 00:43:00,
2013-01-02 18:48:00,26.7,17.9,29.67,SSW,195,4.0,7.0,69,0.00,,,0.00,Wunderground v.1.15,2013-01-03 00:48:00,
2013-01-02 18:53:00,26.7,18.2,29.67,South,190,7.0,7.0,70,0.00,,,0.00,Wunderground v.1.15,2013-01-03 00:53:00,
2013-01-02 18:58:00,26.7,18.2,29.67,South,190,5.0,7.0,70,0.00,,,0.00,Wunderground v.1.15,2013-01-03 00:58:00,
2013-01-02 19:03:00,27.4,17.9,29.67,SSW,194,3.0,7.0,67,0.00,,,0.00,Wunderground v.1.15,2013-01-03 01:03:00,
2013-01-02 19:08:00,26.8,18.3,29.68,South,189,4.0,10.0,70,0.00,,,0.00,Wunderground v.1.15,2013-01-03 01:08:00,
2013-01-02 19:13:00,27.2,18.4,29.68,SSW,198,1.0,8.0,69,0.00,,,0.00,Wunderground v.1.15,2013-01-03 01:13:00,
2013-01-02 19:18:00,-999.9,-99.9,29.68,South,190,6.0,9.0,69,0.00,,,0.00,Wunderground v.1.15,2013-01-03 01:18:00,
2013-01-02 19:23:00,27.8,18.6,29.67,SSW,195,7.0,8.0,68,0.00,,,0.00,Wunderground v.1.15,2013-01-03 01:23:00,
2013-01-02 19:28:00,28.3,-99.9,29.67,South,188,3.0,8.0,255,0.00,,,0.00,Wunderground v.1.15,2013-01-03 01:28:00,
2013-01-02 19:33:00,27.1,18.3,29.67,South,189,2.0,9.0,69,0.00,,,0.00,Wunderground v.1.15,2013-01-03 01:33:00,
2013-01-02 19:38:00,27.1,18.3,29.68,SSW,197,4.0,9.0,69,0.00,,,0.00,Wunderground v.1.15,2013-01-03 01:38:00,
2013-01-02 19:43:00,27.0,18.2,29.68,SSW,196,4.0,9.0,69,0.00,,,0.00,Wunderground v.1.15,2013-01-03 01:43:00,
2013-01-02 19:48:00,27.0,18.2,29.68,SSW,205,6.0,9.0,69,0.00,,,0.00,Wunderground v.1.15,2013-01-03 01:48:00,
2013-01-02 19:53:00,28.3,19.4,29.69,South,187,5.0,8.0,69,0.00,,,0.00,Wunderground v.1.15,2013-01-03 01:53:00,
2013-01-02 19:58:00,26.9,18.1,29.68,SSW,211,3.0,8.0,69,0.00,,,0.00,Wunderground v.1.15,2013-01-03 01:58:00,
2013-01-02 20:03:00,27.0,18.2,29.69,SSW,201,4.0,8.0,69,0.00,,,0.00,Wunderground v.1.15,2013-01-03 02:03:00,
2013-01-02 20:08:00,27.0,18.5,29.68,SSW,201,3.0,8.0,70,0.00,,,0.00,Wunderground v.1.15,2013-01-03 02:08:00,
2013-01-02 20:13:00,27.1,18.6,29.69,SW,218,9.0,9.0,70,0.00,,,0.00,Wunderground v.1.15,2013-01-03 02:13:00,
2013-01-02 20:19:00,-999.9,-99.9,29.69,SSW,198,6.0,11.0,255,0.00,,,0.00,Wunderground v.1.15,2013-01-03 02:19:00,
2013-01-02 20:23:00,27.3,18.8,29.69,SSW,201,6.0,10.0,70,0.00,,,0.00,Wunderground v.1.15,2013-01-03 02:23:00,
2013-01-02 20:28:00,27.3,18.8,29.69,SSW,204,3.0,10.0,70,0.00,,,0.00,Wunderground v.1.15,2013-01-03 02:28:00,
2013-01-02 20:33:00,27.7,18.8,29.69,SSW,196,5.0,10.0,69,0.00,,,0.00,Wunderground v.1.15,2013-01-03 02:33:00,
2013-01-02 20:39:00,27.9,19.4,29.69,SSW,209,2.0,11.0,70,0.00,,,0.00,Wunderground v.1.15,2013-01-03 02:39:00,
2013-01-02 20:44:00,27.8,18.9,29.69,SW,215,6.0,11.0,69,0.00,,,0.00,Wunderground v.1.15,2013-01-03 02:44:00,
2013-01-02 20:49:00,27.9,19.0,29.69,SW,223,2.0,11.0,69,0.00,,,0.00,Wunderground v.1.15,2013-01-03 02:49:00,
2013-01-02 20:54:00,27.9,19.0,29.69,SSW,211,0.0,7.0,69,0.00,,,0.00,Wunderground v.1.15,2013-01-03 02:54:00,
2013-01-02 20:59:00,27.9,19.0,29.68,SW,228,4.0,10.0,69,0.00,,,0.00,Wunderground v.1.15,2013-01-03 02:59:00,
2013-01-02 21:04:00,28.3,19.1,29.69,SSW,209,4.0,8.0,68,0.00,,,0.00,Wunderground v.1.15,2013-01-03 03:04:00,
2013-01-02 21:09:00,27.9,19.0,29.69,SW,224,3.0,9.0,69,0.00,,,0.00,Wunderground v.1.15,2013-01-03 03:09:00,
2013-01-02 21:14:00,27.7,19.2,29.69,SSW,204,0.0,9.0,70,0.00,,,0.00,Wunderground v.1.15,2013-01-03 03:14:00,
2013-01-02 21:19:00,27.6,19.1,29.69,SW,215,3.0,10.0,70,0.00,,,0.00,Wunderground v.1.15,2013-01-03 03:19:00,
2013-01-02 21:24:00,27.6,19.4,29.69,SW,217,4.0,8.0,71,0.00,,,0.00,Wunderground v.1.15,2013-01-03 03:24:00,
2013-01-02 21:29:00,28.1,19.9,29.69,SW,221,5.0,8.0,71,0.00,,,0.00,Wunderground v.1.15,2013-01-03 03:29:00,
2013-01-02 21:36:00,27.6,19.4,29.69,SW,225,0.0,4.0,71,0.00,,,0.00,Wunderground v.1.15,2013-01-03 03:36:00,
2013-01-02 21:42:00,27.5,19.7,29.70,SW,216,1.0,3.0,72,0.00,,,0.00,Wunderground v.1.15,2013-01-03 03:42:00,
2013-01-02 21:47:00,27.4,19.6,29.70,SW,219,0.0,7.0,72,0.00,,,0.00,Wunderground v.1.15,2013-01-03 03:47:00,
2013-01-02 21:52:00,27.4,19.6,29.70,SW,222,4.0,7.0,72,0.00,,,0.00,Wunderground v.1.15,2013-01-03 03:52:00,
2013-01-02 21:57:00,27.5,19.7,29.70,SW,222,4.0,13.0,72,0.00,,,0.00,Wunderground v.1.15,2013-01-03 03:57:00,
2013-01-02 22:02:00,27.6,19.8,29.70,SW,225,1.0,6.0,72,0.00,,,0.00,Wunderground v.1.15,2013-01-03 04:02:00,
2013-01-02 22:07:00,-90.0,-94.2,29.70,SW,221,1.0,9.0,72,0.00,,,0.00,Wunderground v.1.15,2013-01-03 04:07:00,
2013-01-02 22:12:00,27.9,20.0,29.70,WSW,245,2.0,7.0,72,0.00,,,0.00,Wunderground v.1.15,2013-01-03 04:12:00,
2013-01-02 22:17:00,28.8,-99.9,29.70,SW,227,5.0,10.0,255,0.00,,,0.00,Wunderground v.1.15,2013-01-03 04:17:00,
2013-01-02 22:22:00,28.1,20.2,29.71,SW,230,0.0,6.0,72,0.00,,,0.00,Wunderground v.1.15,2013-01-03 04:22:00,
2013-01-02 22:27:00,28.3,20.4,29.70,SW,225,3.0,10.0,72,0.00,,,0.00,Wunderground v.1.15,2013-01-03 04:27:00,
2013-01-02 22:32:00,28.3,20.4,29.71,SW,234,0.0,8.0,72,0.00,,,0.00,Wunderground v.1.15,2013-01-03 04:32:00,
2013-01-02 22:37:00,28.4,20.5,29.70,SW,223,6.0,8.0,72,0.00,,,0.00,Wunderground v.1.15,2013-01-03 04:37:00,
2013-01-02 22:42:00,28.3,20.7,29.71,SW,231,2.0,8.0,73,0.00,,,0.00,Wunderground v.1.15,2013-01-03 04:42:00,
2013-01-02 22:47:00,28.3,20.7,29.71,SW,222,0.0,11.0,73,0.00,,,0.00,Wunderground v.1.15,2013-01-03 04:47:00,
2013-01-02 22:52:00,28.6,21.4,29.70,SW,234,3.0,8.0,74,0.00,,,0.00,Wunderground v.1.15,2013-01-03 04:52:00,
2013-01-02 22:57:00,28.5,20.6,29.71,SW,232,0.0,8.0,72,0.00,,,0.00,Wunderground v.1.15,2013-01-03 04:57:00,
2013-01-02 23:00:00,28.4,20.8,29.70,SW,223,5.0,5.0,73,0.00,,,0.00,Wunderground v.1.15,2013-01-03 05:00:00,
2013-01-02 23:01:00,28.3,21.1,29.70,WSW,248,8.0,8.0,74,0.00,,,0.00,Wunderground v.1.15,2013-01-03 05:01:00,
2013-01-02 23:02:00,28.3,21.1,29.70,WSW,241,3.0,8.0,74,0.00,,,0.00,Wunderground v.1.15,2013-01-03 05:02:00,
2013-01-02 23:03:00,28.4,21.2,29.70,SW,236,4.0,10.0,74,0.00,,,0.00,Wunderground v.1.15,2013-01-03 05:03:00,
2013-01-02 23:08:00,28.5,20.0,29.70,SW,236,2.0,10.0,70,0.00,,,0.00,Wunderground v.1.15,2013-01-03 05:08:00,
2013-01-02 23:13:00,28.6,21.4,29.70,WSW,237,1.0,5.0,74,0.00,,,0.00,Wunderground v.1.15,2013-01-03 05:13:00,
2013-01-02 23:18:00,28.2,20.7,29.70,WSW,238,4.0,5.0,73,0.00,,,0.00,Wunderground v.1.15,2013-01-03 05:18:00,
2013-01-02 23:23:00,27.9,21.0,29.71,WSW,237,2.0,8.0,75,0.00,,,0.00,Wunderground v.1.15,2013-01-03 05:23:00,
2013-01-02 23:28:00,29.7,21.8,29.70,SW,235,4.0,12.0,72,0.00,,,0.00,Wunderground v.1.15,2013-01-03 05:28:00,
2013-01-02 23:33:00,27.9,20.7,29.70,WSW,238,0.0,7.0,74,0.00,,,0.00,Wunderground v.1.15,2013-01-03 05:33:00,
2013-01-02 23:38:00,27.9,21.0,29.70,WSW,237,5.0,7.0,75,0.00,,,0.00,Wunderground v.1.15,2013-01-03 05:38:00,
2013-01-02 23:43:00,27.9,21.3,29.70,WSW,258,4.0,12.0,76,0.00,,,0.00,Wunderground v.1.15,2013-01-03 05:43:00,
2013-01-02 23:48:00,27.8,21.2,29.71,WSW,238,0.0,12.0,76,0.00,,,0.00,Wunderground v.1.15,2013-01-03 05:48:00,
2013-01-02 23:53:00,27.8,21.2,29.70,SW,233,6.0,8.0,76,0.00,,,0.00,Wunderground v.1.15,2013-01-03 05:53:00,
2013-01-02 23:58:00,27.7,21.4,29.70,West,273,0.0,8.0,77,0.00,,,0.00,Wunderground v.1.15,2013-01-03 05:58:00,